sensor_id;sensor_type;location;lat;lon;timestamp;pressure;altitude;pressure_sealevel;temperature;humidity
16613;BME280;8419;52.358;9.752;2023-07-08T00:01:27;101354.00;;;28.53;27.74
16613;BME280;8419;52.358;9.752;2023-07-08T00:04:12;101359.00;;;28.48;27.81
16613;BME280;8419;52.358;9.752;2023-07-08T00:06:57;101351.00;;;28.44;27.91
16613;BME280;8419;52.358;9.752;2023-07-08T00:09:43;101360.00;;;28.39;27.99
16613;BME280;8419;52.358;9.752;2023-07-08T00:12:28;101351.00;;;28.34;28.07
16613;BME280;8419;52.358;9.752;2023-07-08T00:15:13;101356.00;;;28.32;28.08
16613;BME280;8419;52.358;9.752;2023-07-08T00:17:59;101349.00;;;28.31;28.12
16613;BME280;8419;52.358;9.752;2023-07-08T00:20:47;101347.00;;;28.26;28.18
16613;BME280;8419;52.358;9.752;2023-07-08T00:23:33;101348.00;;;28.24;28.25
16613;BME280;8419;52.358;9.752;2023-07-08T00:26:23;101346.00;;;28.20;28.28
16613;BME280;8419;52.358;9.752;2023-07-08T00:29:10;101339.00;;;28.19;28.31
16613;BME280;8419;52.358;9.752;2023-07-08T00:31:57;101344.00;;;28.12;28.40
16613;BME280;8419;52.358;9.752;2023-07-08T00:34:42;101342.00;;;28.06;28.48
16613;BME280;8419;52.358;9.752;2023-07-08T00:37:28;101340.00;;;28.06;28.47
16613;BME280;8419;52.358;9.752;2023-07-08T00:40:17;101338.00;;;28.03;28.52
16613;BME280;8419;52.358;9.752;2023-07-08T00:43:07;101336.00;;;27.97;28.62
16613;BME280;8419;52.358;9.752;2023-07-08T00:46:03;101337.00;;;27.93;28.72
16613;BME280;8419;52.358;9.752;2023-07-08T00:49:00;101330.00;;;27.90;28.76
16613;BME280;8419;52.358;9.752;2023-07-08T00:51:48;101335.00;;;27.80;28.85
16613;BME280;8419;52.358;9.752;2023-07-08T00:54:33;101327.00;;;27.79;28.85
16613;BME280;8419;52.358;9.752;2023-07-08T00:57:19;101332.00;;;27.76;28.89
16613;BME280;8419;52.358;9.752;2023-07-08T01:00:08;101332.00;;;27.70;28.96
16613;BME280;8419;52.358;9.752;2023-07-08T01:02:57;101332.00;;;27.67;29.05
16613;BME280;8419;52.358;9.752;2023-07-08T01:05:42;101328.00;;;27.66;29.08
16613;BME280;8419;52.358;9.752;2023-07-08T01:08:29;101332.00;;;27.59;29.16
16613;BME280;8419;52.358;9.752;2023-07-08T01:11:15;101332.00;;;27.54;29.25
16613;BME280;8419;52.358;9.752;2023-07-08T01:14:01;101320.00;;;27.52;29.26
16613;BME280;8419;52.358;9.752;2023-07-08T01:16:48;101320.00;;;27.52;29.29
16613;BME280;8419;52.358;9.752;2023-07-08T01:19:35;101316.00;;;27.49;29.33
16613;BME280;8419;52.358;9.752;2023-07-08T01:22:23;101314.00;;;27.50;29.30
16613;BME280;8419;52.358;9.752;2023-07-08T01:25:08;101316.00;;;27.48;29.35
16613;BME280;8419;52.358;9.752;2023-07-08T01:27:55;101309.00;;;27.52;29.30
16613;BME280;8419;52.358;9.752;2023-07-08T01:30:42;101302.00;;;27.51;29.31
16613;BME280;8419;52.358;9.752;2023-07-08T01:33:28;101302.00;;;27.48;29.38
16613;BME280;8419;52.358;9.752;2023-07-08T01:36:14;101308.00;;;27.38;29.50
16613;BME280;8419;52.358;9.752;2023-07-08T01:39:00;101302.00;;;27.34;29.55
16613;BME280;8419;52.358;9.752;2023-07-08T01:41:45;101305.00;;;27.33;29.61
16613;BME280;8419;52.358;9.752;2023-07-08T01:44:34;101305.00;;;27.20;29.80
16613;BME280;8419;52.358;9.752;2023-07-08T01:47:20;101294.00;;;27.15;29.94
16613;BME280;8419;52.358;9.752;2023-07-08T01:50:09;101295.00;;;27.08;30.04
16613;BME280;8419;52.358;9.752;2023-07-08T01:52:58;101293.00;;;27.06;30.07
16613;BME280;8419;52.358;9.752;2023-07-08T01:55:44;101292.00;;;27.06;30.13
16613;BME280;8419;52.358;9.752;2023-07-08T01:58:30;101291.00;;;27.12;30.03
16613;BME280;8419;52.358;9.752;2023-07-08T02:01:16;101283.00;;;26.99;30.22
16613;BME280;8419;52.358;9.752;2023-07-08T02:04:01;101289.00;;;26.94;30.31
16613;BME280;8419;52.358;9.752;2023-07-08T02:06:51;101283.00;;;26.97;30.32
16613;BME280;8419;52.358;9.752;2023-07-08T02:09:37;101283.00;;;26.98;30.36
16613;BME280;8419;52.358;9.752;2023-07-08T02:12:22;101281.00;;;26.88;30.46
16613;BME280;8419;52.358;9.752;2023-07-08T02:15:11;101277.00;;;26.87;30.50
16613;BME280;8419;52.358;9.752;2023-07-08T02:17:56;101276.00;;;26.83;30.62
16613;BME280;8419;52.358;9.752;2023-07-08T02:20:43;101276.00;;;26.83;30.60
16613;BME280;8419;52.358;9.752;2023-07-08T02:23:29;101272.00;;;26.78;30.73
16613;BME280;8419;52.358;9.752;2023-07-08T02:26:14;101275.00;;;26.75;30.79
16613;BME280;8419;52.358;9.752;2023-07-08T02:29:00;101270.00;;;26.75;30.82
16613;BME280;8419;52.358;9.752;2023-07-08T02:31:47;101278.00;;;26.78;30.82
16613;BME280;8419;52.358;9.752;2023-07-08T02:34:32;101280.00;;;26.76;30.85
16613;BME280;8419;52.358;9.752;2023-07-08T02:37:17;101267.00;;;26.75;30.88
16613;BME280;8419;52.358;9.752;2023-07-08T02:40:04;101280.00;;;26.76;30.93
16613;BME280;8419;52.358;9.752;2023-07-08T02:42:49;101276.00;;;26.70;31.00
16613;BME280;8419;52.358;9.752;2023-07-08T02:45:34;101284.00;;;26.65;31.07
16613;BME280;8419;52.358;9.752;2023-07-08T02:48:19;101278.00;;;26.62;31.16
16613;BME280;8419;52.358;9.752;2023-07-08T02:51:05;101278.00;;;26.62;31.21
16613;BME280;8419;52.358;9.752;2023-07-08T02:53:50;101269.00;;;26.58;31.27
16613;BME280;8419;52.358;9.752;2023-07-08T02:56:36;101281.00;;;26.58;31.31
16613;BME280;8419;52.358;9.752;2023-07-08T02:59:21;101265.00;;;26.52;31.37
16613;BME280;8419;52.358;9.752;2023-07-08T03:02:06;101276.00;;;26.49;31.47
16613;BME280;8419;52.358;9.752;2023-07-08T03:04:52;101274.00;;;26.51;31.47
16613;BME280;8419;52.358;9.752;2023-07-08T03:07:39;101271.00;;;26.51;31.50
16613;BME280;8419;52.358;9.752;2023-07-08T03:10:24;101274.00;;;26.45;31.60
16613;BME280;8419;52.358;9.752;2023-07-08T03:13:09;101271.00;;;26.40;31.70
16613;BME280;8419;52.358;9.752;2023-07-08T03:15:55;101271.00;;;26.38;31.74
16613;BME280;8419;52.358;9.752;2023-07-08T03:18:40;101267.00;;;26.32;31.86
16613;BME280;8419;52.358;9.752;2023-07-08T03:21:32;101262.00;;;26.30;31.93
16613;BME280;8419;52.358;9.752;2023-07-08T03:24:17;101264.00;;;26.31;31.96
16613;BME280;8419;52.358;9.752;2023-07-08T03:27:04;101268.00;;;26.30;32.03
16613;BME280;8419;52.358;9.752;2023-07-08T03:29:49;101265.00;;;26.34;31.99
16613;BME280;8419;52.358;9.752;2023-07-08T03:32:35;101267.00;;;26.31;32.03
16613;BME280;8419;52.358;9.752;2023-07-08T03:35:20;101269.00;;;26.31;32.01
16613;BME280;8419;52.358;9.752;2023-07-08T03:38:07;101265.00;;;26.27;32.12
16613;BME280;8419;52.358;9.752;2023-07-08T03:40:52;101266.00;;;26.29;32.12
16613;BME280;8419;52.358;9.752;2023-07-08T03:43:38;101261.00;;;26.26;32.19
16613;BME280;8419;52.358;9.752;2023-07-08T03:46:23;101272.00;;;26.26;32.20
16613;BME280;8419;52.358;9.752;2023-07-08T03:49:09;101277.00;;;26.26;32.21
16613;BME280;8419;52.358;9.752;2023-07-08T03:51:54;101266.00;;;26.26;32.29
16613;BME280;8419;52.358;9.752;2023-07-08T03:54:40;101274.00;;;26.27;32.25
16613;BME280;8419;52.358;9.752;2023-07-08T03:57:26;101274.00;;;26.21;32.40
16613;BME280;8419;52.358;9.752;2023-07-08T04:00:12;101278.00;;;26.17;32.45
16613;BME280;8419;52.358;9.752;2023-07-08T04:02:58;101285.00;;;26.18;32.53
16613;BME280;8419;52.358;9.752;2023-07-08T04:05:43;101284.00;;;26.17;32.53
16613;BME280;8419;52.358;9.752;2023-07-08T04:08:29;101290.00;;;26.18;32.59
16613;BME280;8419;52.358;9.752;2023-07-08T04:11:16;101282.00;;;26.21;32.59
16613;BME280;8419;52.358;9.752;2023-07-08T04:14:02;101280.00;;;26.21;32.64
16613;BME280;8419;52.358;9.752;2023-07-08T04:16:50;101273.00;;;26.25;32.62
16613;BME280;8419;52.358;9.752;2023-07-08T04:19:36;101273.00;;;26.27;32.65
16613;BME280;8419;52.358;9.752;2023-07-08T04:22:24;101279.00;;;26.29;32.65
16613;BME280;8419;52.358;9.752;2023-07-08T04:25:10;101283.00;;;26.29;32.66
16613;BME280;8419;52.358;9.752;2023-07-08T04:27:57;101282.00;;;26.32;32.68
16613;BME280;8419;52.358;9.752;2023-07-08T04:30:43;101284.00;;;26.30;32.73
16613;BME280;8419;52.358;9.752;2023-07-08T04:33:28;101290.00;;;26.27;32.83
16613;BME280;8419;52.358;9.752;2023-07-08T04:36:14;101283.00;;;26.31;32.85
16613;BME280;8419;52.358;9.752;2023-07-08T04:39:00;101291.00;;;26.31;32.89
16613;BME280;8419;52.358;9.752;2023-07-08T04:41:46;101284.00;;;26.33;32.90
16613;BME280;8419;52.358;9.752;2023-07-08T04:44:31;101287.00;;;26.24;33.08
16613;BME280;8419;52.358;9.752;2023-07-08T04:47:17;101280.00;;;26.42;32.80
16613;BME280;8419;52.358;9.752;2023-07-08T04:50:06;101292.00;;;26.40;32.88
16613;BME280;8419;52.358;9.752;2023-07-08T04:52:51;101291.00;;;26.44;32.90
16613;BME280;8419;52.358;9.752;2023-07-08T04:55:39;101291.00;;;26.44;32.90
16613;BME280;8419;52.358;9.752;2023-07-08T04:58:26;101290.00;;;26.54;32.83
16613;BME280;8419;52.358;9.752;2023-07-08T05:01:12;101291.00;;;26.53;32.85
16613;BME280;8419;52.358;9.752;2023-07-08T05:03:57;101288.00;;;26.53;32.91
16613;BME280;8419;52.358;9.752;2023-07-08T05:06:43;101297.00;;;26.59;32.90
16613;BME280;8419;52.358;9.752;2023-07-08T05:09:29;101290.00;;;26.60;32.91
16613;BME280;8419;52.358;9.752;2023-07-08T05:12:16;101294.00;;;26.65;32.84
16613;BME280;8419;52.358;9.752;2023-07-08T05:15:02;101297.00;;;26.60;32.97
16613;BME280;8419;52.358;9.752;2023-07-08T05:17:50;101301.00;;;26.72;32.78
16613;BME280;8419;52.358;9.752;2023-07-08T05:20:36;101300.00;;;26.75;32.83
16613;BME280;8419;52.358;9.752;2023-07-08T05:23:21;101309.00;;;26.79;32.81
16613;BME280;8419;52.358;9.752;2023-07-08T05:26:07;101295.00;;;26.77;nan
16613;BME280;8419;52.358;9.752;2023-07-08T05:28:52;101304.00;;;26.78;32.91
16613;BME280;8419;52.358;9.752;2023-07-08T05:31:37;101306.00;;;26.82;32.87
16613;BME280;8419;52.358;9.752;2023-07-08T05:34:23;101302.00;;;26.86;32.83
16613;BME280;8419;52.358;9.752;2023-07-08T05:37:08;101302.00;;;26.96;32.68
16613;BME280;8419;52.358;9.752;2023-07-08T05:39:53;101306.00;;;27.01;32.59
16613;BME280;8419;52.358;9.752;2023-07-08T05:42:39;101304.00;;;27.07;32.52
16613;BME280;8419;52.358;9.752;2023-07-08T05:45:25;101301.00;;;27.10;32.52
16613;BME280;8419;52.358;9.752;2023-07-08T05:48:10;101295.00;;;27.12;32.52
16613;BME280;8419;52.358;9.752;2023-07-08T05:50:56;101289.00;;;27.20;32.43
16613;BME280;8419;52.358;9.752;2023-07-08T05:53:42;101296.00;;;27.25;32.42
16613;BME280;8419;52.358;9.752;2023-07-08T05:56:29;101295.00;;;27.29;32.38
16613;BME280;8419;52.358;9.752;2023-07-08T05:59:18;101296.00;;;27.34;32.33
16613;BME280;8419;52.358;9.752;2023-07-08T06:02:18;101295.00;;;27.37;32.32
16613;BME280;8419;52.358;9.752;2023-07-08T06:05:08;101294.00;;;27.45;32.22
16613;BME280;8419;52.358;9.752;2023-07-08T06:07:53;101292.00;;;27.47;32.27
16613;BME280;8419;52.358;9.752;2023-07-08T06:10:42;101295.00;;;27.50;32.20
16613;BME280;8419;52.358;9.752;2023-07-08T06:13:28;101296.00;;;27.60;32.10
16613;BME280;8419;52.358;9.752;2023-07-08T06:16:14;101291.00;;;27.64;32.07
16613;BME280;8419;52.358;9.752;2023-07-08T06:18:59;101289.00;;;27.66;32.07
16613;BME280;8419;52.358;9.752;2023-07-08T06:21:45;101279.00;;;27.69;32.10
16613;BME280;8419;52.358;9.752;2023-07-08T06:24:30;101289.00;;;27.79;31.99
16613;BME280;8419;52.358;9.752;2023-07-08T06:27:15;101294.00;;;27.82;31.97
16613;BME280;8419;52.358;9.752;2023-07-08T06:30:01;101293.00;;;27.88;31.89
16613;BME280;8419;52.358;9.752;2023-07-08T06:32:46;101288.00;;;27.93;31.86
16613;BME280;8419;52.358;9.752;2023-07-08T06:35:32;101288.00;;;28.01;31.78
16613;BME280;8419;52.358;9.752;2023-07-08T06:38:20;101290.00;;;28.08;31.74
16613;BME280;8419;52.358;9.752;2023-07-08T06:41:05;101289.00;;;28.15;31.69
16613;BME280;8419;52.358;9.752;2023-07-08T06:43:51;101291.00;;;28.21;31.65
16613;BME280;8419;52.358;9.752;2023-07-08T06:46:37;101293.00;;;28.30;31.59
16613;BME280;8419;52.358;9.752;2023-07-08T06:49:23;101300.00;;;28.32;31.65
16613;BME280;8419;52.358;9.752;2023-07-08T06:52:09;101300.00;;;28.37;31.69
16613;BME280;8419;52.358;9.752;2023-07-08T06:54:54;101295.00;;;28.39;31.68
16613;BME280;8419;52.358;9.752;2023-07-08T06:57:39;101300.00;;;28.49;31.64
16613;BME280;8419;52.358;9.752;2023-07-08T07:00:25;101295.00;;;28.49;31.65
16613;BME280;8419;52.358;9.752;2023-07-08T07:03:11;101300.00;;;28.62;31.46
16613;BME280;8419;52.358;9.752;2023-07-08T07:05:59;101304.00;;;28.71;31.41
16613;BME280;8419;52.358;9.752;2023-07-08T07:08:45;101301.00;;;28.77;31.43
16613;BME280;8419;52.358;9.752;2023-07-08T07:11:31;101299.00;;;28.79;31.51
16613;BME280;8419;52.358;9.752;2023-07-08T07:14:16;101297.00;;;28.86;31.47
16613;BME280;8419;52.358;9.752;2023-07-08T07:17:02;101293.00;;;28.90;31.41
16613;BME280;8419;52.358;9.752;2023-07-08T07:19:48;101293.00;;;29.05;31.25
16613;BME280;8419;52.358;9.752;2023-07-08T07:22:33;101287.00;;;29.11;31.19
16613;BME280;8419;52.358;9.752;2023-07-08T07:25:19;101293.00;;;29.18;31.13
16613;BME280;8419;52.358;9.752;2023-07-08T07:28:05;101288.00;;;29.23;31.10
16613;BME280;8419;52.358;9.752;2023-07-08T07:30:56;101286.00;;;29.17;31.25
16613;BME280;8419;52.358;9.752;2023-07-08T07:33:43;101294.00;;;29.22;31.25
16613;BME280;8419;52.358;9.752;2023-07-08T07:36:31;101291.00;;;29.30;31.15
16613;BME280;8419;52.358;9.752;2023-07-08T07:39:17;101296.00;;;29.38;31.11
16613;BME280;8419;52.358;9.752;2023-07-08T07:42:04;101299.00;;;29.51;30.99
16613;BME280;8419;52.358;9.752;2023-07-08T07:44:50;101292.00;;;29.56;31.02
16613;BME280;8419;52.358;9.752;2023-07-08T07:47:36;101292.00;;;29.66;31.00
16613;BME280;8419;52.358;9.752;2023-07-08T07:50:22;101284.00;;;29.75;30.97
16613;BME280;8419;52.358;9.752;2023-07-08T07:53:08;101289.00;;;29.79;31.00
16613;BME280;8419;52.358;9.752;2023-07-08T07:55:57;101284.00;;;29.86;30.94
16613;BME280;8419;52.358;9.752;2023-07-08T07:58:43;101281.00;;;29.96;30.93
16613;BME280;8419;52.358;9.752;2023-07-08T08:01:28;101286.00;;;30.11;30.74
16613;BME280;8419;52.358;9.752;2023-07-08T08:04:13;101286.00;;;30.20;30.67
16613;BME280;8419;52.358;9.752;2023-07-08T08:06:59;101287.00;;;30.27;30.68
16613;BME280;8419;52.358;9.752;2023-07-08T08:09:45;101279.00;;;30.40;30.57
16613;BME280;8419;52.358;9.752;2023-07-08T08:12:30;101278.00;;;30.49;30.49
16613;BME280;8419;52.358;9.752;2023-07-08T08:15:15;101272.00;;;30.49;30.58
16613;BME280;8419;52.358;9.752;2023-07-08T08:18:01;101281.00;;;30.64;30.45
16613;BME280;8419;52.358;9.752;2023-07-08T08:20:50;101280.00;;;30.75;30.45
16613;BME280;8419;52.358;9.752;2023-07-08T08:23:36;101281.00;;;30.88;30.36
16613;BME280;8419;52.358;9.752;2023-07-08T08:26:21;101294.00;;;31.00;30.26
16613;BME280;8419;52.358;9.752;2023-07-08T08:29:07;101290.00;;;31.12;30.12
16613;BME280;8419;52.358;9.752;2023-07-08T08:31:52;101285.00;;;31.27;29.94
16613;BME280;8419;52.358;9.752;2023-07-08T08:34:40;101292.00;;;31.46;29.70
16613;BME280;8419;52.358;9.752;2023-07-08T08:37:27;101302.00;;;31.55;29.55
16613;BME280;8419;52.358;9.752;2023-07-08T08:40:15;101291.00;;;31.63;29.43
16613;BME280;8419;52.358;9.752;2023-07-08T08:43:04;101292.00;;;31.84;29.17
16613;BME280;8419;52.358;9.752;2023-07-08T08:45:56;101291.00;;;31.98;28.98
16613;BME280;8419;52.358;9.752;2023-07-08T08:48:48;101284.00;;;32.07;28.89
16613;BME280;8419;52.358;9.752;2023-07-08T08:51:37;101288.00;;;32.16;28.81
16613;BME280;8419;52.358;9.752;2023-07-08T08:54:22;101297.00;;;32.23;28.96
16613;BME280;8419;52.358;9.752;2023-07-08T08:57:15;101290.00;;;32.35;28.78
16613;BME280;8419;52.358;9.752;2023-07-08T09:00:07;101288.00;;;32.58;28.55
16613;BME280;8419;52.358;9.752;2023-07-08T09:03:01;101288.00;;;32.74;28.27
16613;BME280;8419;52.358;9.752;2023-07-08T09:05:47;101283.00;;;32.72;28.32
16613;BME280;8419;52.358;9.752;2023-07-08T09:08:35;101285.00;;;32.83;28.15
16613;BME280;8419;52.358;9.752;2023-07-08T09:11:30;101287.00;;;32.93;28.06
16613;BME280;8419;52.358;9.752;2023-07-08T09:14:23;101288.00;;;33.18;27.78
16613;BME280;8419;52.358;9.752;2023-07-08T09:17:17;101283.00;;;33.38;27.46
16613;BME280;8419;52.358;9.752;2023-07-08T09:20:16;101278.00;;;33.43;27.45
16613;BME280;8419;52.358;9.752;2023-07-08T09:23:15;101274.00;;;33.68;27.14
16613;BME280;8419;52.358;9.752;2023-07-08T09:26:09;101267.00;;;33.84;26.99
16613;BME280;8419;52.358;9.752;2023-07-08T09:28:57;101262.00;;;33.81;27.11
16613;BME280;8419;52.358;9.752;2023-07-08T09:31:43;101265.00;;;33.93;27.04
16613;BME280;8419;52.358;9.752;2023-07-08T09:34:41;101265.00;;;34.16;26.80
16613;BME280;8419;52.358;9.752;2023-07-08T09:37:29;101270.00;;;34.22;26.80
16613;BME280;8419;52.358;9.752;2023-07-08T09:40:18;101267.00;;;34.32;26.64
16613;BME280;8419;52.358;9.752;2023-07-08T09:43:14;101261.00;;;34.46;26.54
16613;BME280;8419;52.358;9.752;2023-07-08T09:46:01;101263.00;;;34.66;26.44
16613;BME280;8419;52.358;9.752;2023-07-08T09:48:47;101259.00;;;34.80;26.26
16613;BME280;8419;52.358;9.752;2023-07-08T09:51:32;101269.00;;;34.95;26.02
16613;BME280;8419;52.358;9.752;2023-07-08T09:54:18;101279.00;;;35.10;25.88
16613;BME280;8419;52.358;9.752;2023-07-08T09:57:09;101271.00;;;35.25;25.64
16613;BME280;8419;52.358;9.752;2023-07-08T10:00:00;101272.00;;;35.41;25.58
16613;BME280;8419;52.358;9.752;2023-07-08T10:02:53;101269.00;;;35.57;25.32
16613;BME280;8419;52.358;9.752;2023-07-08T10:05:42;101264.00;;;35.64;25.23
16613;BME280;8419;52.358;9.752;2023-07-08T10:08:36;101270.00;;;35.81;24.92
16613;BME280;8419;52.358;9.752;2023-07-08T10:11:27;101268.00;;;35.98;24.75
16613;BME280;8419;52.358;9.752;2023-07-08T10:14:25;101267.00;;;36.09;24.68
16613;BME280;8419;52.358;9.752;2023-07-08T10:17:16;101268.00;;;36.23;24.53
16613;BME280;8419;52.358;9.752;2023-07-08T10:20:10;101266.00;;;36.20;24.44
16613;BME280;8419;52.358;9.752;2023-07-08T10:23:04;101269.00;;;36.34;24.28
16613;BME280;8419;52.358;9.752;2023-07-08T10:25:58;101275.00;;;36.45;24.04
16613;BME280;8419;52.358;9.752;2023-07-08T10:28:53;101272.00;;;36.54;24.03
16613;BME280;8419;52.358;9.752;2023-07-08T10:31:49;101275.00;;;36.70;23.87
16613;BME280;8419;52.358;9.752;2023-07-08T10:34:42;101266.00;;;36.72;23.93
16613;BME280;8419;52.358;9.752;2023-07-08T10:37:37;101263.00;;;36.76;23.94
16613;BME280;8419;52.358;9.752;2023-07-08T10:40:37;101268.00;;;36.88;23.79
16613;BME280;8419;52.358;9.752;2023-07-08T10:43:37;101261.00;;;36.92;23.64
16613;BME280;8419;52.358;9.752;2023-07-08T10:46:38;101254.00;;;37.09;23.38
16613;BME280;8419;52.358;9.752;2023-07-08T10:49:49;101248.00;;;37.17;23.30
16613;BME280;8419;52.358;9.752;2023-07-08T10:52:50;101264.00;;;37.34;23.18
16613;BME280;8419;52.358;9.752;2023-07-08T10:55:46;101255.00;;;37.53;22.91
16613;BME280;8419;52.358;9.752;2023-07-08T10:59:04;101261.00;;;37.58;22.77
16613;BME280;8419;52.358;9.752;2023-07-08T11:02:02;101252.00;;;37.83;22.47
16613;BME280;8419;52.358;9.752;2023-07-08T11:04:58;101249.00;;;37.88;22.26
16613;BME280;8419;52.358;9.752;2023-07-08T11:07:50;101259.00;;;37.89;22.02
16613;BME280;8419;52.358;9.752;2023-07-08T11:10:48;101252.00;;;37.88;21.87
16613;BME280;8419;52.358;9.752;2023-07-08T11:13:42;101251.00;;;37.88;21.80
16613;BME280;8419;52.358;9.752;2023-07-08T11:16:33;101244.00;;;38.00;21.63
16613;BME280;8419;52.358;9.752;2023-07-08T11:19:25;101243.00;;;38.14;21.56
16613;BME280;8419;52.358;9.752;2023-07-08T11:22:15;101241.00;;;38.26;21.24
16613;BME280;8419;52.358;9.752;2023-07-08T11:25:01;101241.00;;;38.26;20.86
16613;BME280;8419;52.358;9.752;2023-07-08T11:27:57;101227.00;;;38.41;20.87
16613;BME280;8419;52.358;9.752;2023-07-08T11:30:49;101228.00;;;38.54;20.75
16613;BME280;8419;52.358;9.752;2023-07-08T11:33:38;101225.00;;;38.60;20.52
16613;BME280;8419;52.358;9.752;2023-07-08T11:36:26;101225.00;;;38.80;20.04
16613;BME280;8419;52.358;9.752;2023-07-08T11:39:28;101223.00;;;38.97;19.80
16613;BME280;8419;52.358;9.752;2023-07-08T11:42:20;101231.00;;;39.29;19.36
16613;BME280;8419;52.358;9.752;2023-07-08T11:45:15;101226.00;;;39.54;19.28
16613;BME280;8419;52.358;9.752;2023-07-08T11:48:13;101220.00;;;39.76;19.10
16613;BME280;8419;52.358;9.752;2023-07-08T11:51:04;101211.00;;;40.16;18.53
16613;BME280;8419;52.358;9.752;2023-07-08T11:53:59;101212.00;;;40.39;18.37
16613;BME280;8419;52.358;9.752;2023-07-08T11:56:56;101209.00;;;40.58;18.32
16613;BME280;8419;52.358;9.752;2023-07-08T11:59:42;101212.00;;;40.97;17.94
16613;BME280;8419;52.358;9.752;2023-07-08T12:02:47;101209.00;;;41.18;17.80
16613;BME280;8419;52.358;9.752;2023-07-08T12:05:35;101211.00;;;41.67;17.47
16613;BME280;8419;52.358;9.752;2023-07-08T12:08:20;101215.00;;;41.96;16.87
16613;BME280;8419;52.358;9.752;2023-07-08T12:11:10;101207.00;;;42.22;16.62
16613;BME280;8419;52.358;9.752;2023-07-08T12:13:58;101207.00;;;42.49;16.46
16613;BME280;8419;52.358;9.752;2023-07-08T12:16:44;101206.00;;;42.65;16.29
16613;BME280;8419;52.358;9.752;2023-07-08T12:19:29;101212.00;;;43.13;15.93
16613;BME280;8419;52.358;9.752;2023-07-08T12:22:16;101204.00;;;43.53;15.40
16613;BME280;8419;52.358;9.752;2023-07-08T12:25:09;101211.00;;;43.68;15.27
16613;BME280;8419;52.358;9.752;2023-07-08T12:27:59;101204.00;;;44.12;14.87
16613;BME280;8419;52.358;9.752;2023-07-08T12:30:45;101207.00;;;44.52;14.67
16613;BME280;8419;52.358;9.752;2023-07-08T12:33:33;101210.00;;;44.65;14.17
16613;BME280;8419;52.358;9.752;2023-07-08T12:36:22;101196.00;;;44.82;13.89
16613;BME280;8419;52.358;9.752;2023-07-08T12:39:15;101198.00;;;45.14;13.80
16613;BME280;8419;52.358;9.752;2023-07-08T12:42:01;101204.00;;;45.61;13.35
16613;BME280;8419;52.358;9.752;2023-07-08T12:44:50;101200.00;;;46.29;13.10
16613;BME280;8419;52.358;9.752;2023-07-08T12:47:35;101196.00;;;46.85;12.78
16613;BME280;8419;52.358;9.752;2023-07-08T12:50:21;101200.00;;;47.23;12.60
16613;BME280;8419;52.358;9.752;2023-07-08T12:53:06;101197.00;;;47.49;12.27
16613;BME280;8419;52.358;9.752;2023-07-08T12:55:56;101195.00;;;47.65;12.09
16613;BME280;8419;52.358;9.752;2023-07-08T12:58:44;101182.00;;;48.19;11.89
16613;BME280;8419;52.358;9.752;2023-07-08T13:01:33;101191.00;;;48.99;11.43
16613;BME280;8419;52.358;9.752;2023-07-08T13:04:19;101196.00;;;49.63;11.21
16613;BME280;8419;52.358;9.752;2023-07-08T13:07:06;101195.00;;;50.14;10.98
16613;BME280;8419;52.358;9.752;2023-07-08T13:09:53;101191.00;;;50.56;10.67
16613;BME280;8419;52.358;9.752;2023-07-08T13:12:40;101187.00;;;50.59;10.52
16613;BME280;8419;52.358;9.752;2023-07-08T13:15:30;101184.00;;;50.88;10.33
16613;BME280;8419;52.358;9.752;2023-07-08T13:18:19;101174.00;;;51.37;10.05
16613;BME280;8419;52.358;9.752;2023-07-08T13:21:06;101181.00;;;51.88;9.77
16613;BME280;8419;52.358;9.752;2023-07-08T13:23:54;101179.00;;;52.37;9.44
16613;BME280;8419;52.358;9.752;2023-07-08T13:26:40;101185.00;;;52.44;9.34
16613;BME280;8419;52.358;9.752;2023-07-08T13:29:34;101180.00;;;52.78;9.23
16613;BME280;8419;52.358;9.752;2023-07-08T13:32:20;101174.00;;;53.31;9.02
16613;BME280;8419;52.358;9.752;2023-07-08T13:35:22;101175.00;;;53.35;8.98
16613;BME280;8419;52.358;9.752;2023-07-08T13:38:14;101176.00;;;53.46;8.93
16613;BME280;8419;52.358;9.752;2023-07-08T13:41:01;101167.00;;;53.36;8.86
16613;BME280;8419;52.358;9.752;2023-07-08T13:43:48;101169.00;;;53.66;8.82
16613;BME280;8419;52.358;9.752;2023-07-08T13:46:36;101164.00;;;54.09;8.52
16613;BME280;8419;52.358;9.752;2023-07-08T13:49:25;101163.00;;;54.45;8.29
16613;BME280;8419;52.358;9.752;2023-07-08T13:52:18;101159.00;;;54.72;8.22
16613;BME280;8419;52.358;9.752;2023-07-08T13:55:16;101159.00;;;55.37;7.93
16613;BME280;8419;52.358;9.752;2023-07-08T13:58:02;101168.00;;;55.84;7.69
16613;BME280;8419;52.358;9.752;2023-07-08T14:00:48;101172.00;;;56.27;7.54
16613;BME280;8419;52.358;9.752;2023-07-08T14:03:33;101175.00;;;56.67;7.28
16613;BME280;8419;52.358;9.752;2023-07-08T14:06:20;101168.00;;;56.94;7.14
16613;BME280;8419;52.358;9.752;2023-07-08T14:09:12;101161.00;;;56.79;7.18
16613;BME280;8419;52.358;9.752;2023-07-08T14:11:57;101155.00;;;56.91;7.14
16613;BME280;8419;52.358;9.752;2023-07-08T14:14:45;101167.00;;;57.15;7.07
16613;BME280;8419;52.358;9.752;2023-07-08T14:17:32;101159.00;;;57.35;6.97
16613;BME280;8419;52.358;9.752;2023-07-08T14:20:18;101157.00;;;57.01;7.03
16613;BME280;8419;52.358;9.752;2023-07-08T14:23:04;101154.00;;;56.58;7.17
16613;BME280;8419;52.358;9.752;2023-07-08T14:25:49;101158.00;;;55.45;7.63
16613;BME280;8419;52.358;9.752;2023-07-08T14:28:34;101154.00;;;53.92;8.30
16613;BME280;8419;52.358;9.752;2023-07-08T14:31:24;101154.00;;;52.39;8.97
16613;BME280;8419;52.358;9.752;2023-07-08T14:34:13;101139.00;;;51.88;9.21
16613;BME280;8419;52.358;9.752;2023-07-08T14:37:01;101141.00;;;50.86;9.62
16613;BME280;8419;52.358;9.752;2023-07-08T14:39:46;101139.00;;;49.33;10.17
16613;BME280;8419;52.358;9.752;2023-07-08T14:42:32;101138.00;;;48.24;10.83
16613;BME280;8419;52.358;9.752;2023-07-08T14:45:18;101132.00;;;47.51;11.30
16613;BME280;8419;52.358;9.752;2023-07-08T14:48:07;101134.00;;;47.04;11.57
16613;BME280;8419;52.358;9.752;2023-07-08T14:50:53;101139.00;;;46.64;11.65